Time;durP1;ratioP1;P1;durP2;ratioP2;P2;SDS_P1;SDS_P2;PMS_P1;PMS_P2;Temp;Humidity;BMP_temperature;BMP_pressure;BME280_temperature;BME280_humidity;BME280_pressure;Samples;Min_cycle;Max_cycle;Signal;HPM_P1;HPM_P2
2023/01/09 00:45:50;;;;;;;34.20;27.70;;;12.80;99.90;;;;;;4586847;19;20014;-31
2023/01/09 00:47:31;;;;;;;34.42;28.17;;;12.80;99.90;;;;;;4588952;19;20453;-28
2023/01/09 00:49:03;;;;;;;34.40;28.67;;;12.80;99.90;;;;;;4589143;19;20332;-28
2023/01/09 01:08:17;;;;;;;37.90;29.63;;;12.80;99.90;;;;;;4588420;19;20389;-28
2023/01/09 01:09:48;;;;;;;;;;;12.80;99.90;;;;;;4589951;19;20091;-31
2023/01/09 01:11:19;;;;;;;40.27;30.07;;;12.80;99.90;;;;;;4588349;19;19919;-30
2023/01/09 01:12:51;;;;;;;;;;;12.80;99.90;;;;;;4589453;19;20018;-35
2023/01/09 01:14:22;;;;;;;38.37;30.17;;;12.80;99.90;;;;;;4587778;19;20378;-28
2023/01/09 01:15:54;;;;;;;36.10;28.88;;;12.80;99.90;;;;;;4588252;19;20014;-32
2023/01/09 01:17:26;;;;;;;37.03;27.80;;;12.80;99.90;;;;;;4587290;19;20017;-25
2023/01/09 01:18:58;;;;;;;35.75;29.85;;;12.80;99.90;;;;;;4588215;19;20034;-33
2023/01/09 01:20:29;;;;;;;35.08;27.95;;;12.80;99.90;;;;;;4588588;19;20014;-32
2023/01/09 01:22:02;;;;;;;38.17;29.07;;;12.90;99.90;;;;;;4588144;19;20034;-31
2023/01/09 01:23:34;;;;;;;34.97;29.37;;;12.90;99.90;;;;;;4590095;19;20076;-32
2023/01/09 01:25:06;;;;;;;39.20;29.93;;;12.90;99.90;;;;;;4592658;19;20345;-30
2023/01/09 01:26:38;;;;;;;34.65;27.88;;;12.90;99.90;;;;;;4593092;19;20014;-35
2023/01/09 01:28:09;;;;;;;34.72;28.35;;;12.90;99.90;;;;;;4592815;19;20014;-30
2023/01/09 01:29:40;;;;;;;36.67;29.02;;;12.90;99.90;;;;;;4592830;19;20014;-28
2023/01/09 01:31:16;;;;;;;38.30;29.75;;;12.90;99.90;;;;;;4591877;19;20011;-29
2023/01/09 01:32:48;;;;;;;36.13;29.07;;;12.90;99.90;;;;;;4592563;19;20496;-33
2023/01/09 01:34:20;;;;;;;34.33;26.42;;;12.90;99.90;;;;;;4592496;19;20038;-31
2023/01/09 01:36:07;;;;;;;35.37;27.23;;;12.90;99.90;;;;;;4592359;19;20469;-32
2023/01/09 01:37:39;;;;;;;34.47;28.83;;;12.90;99.90;;;;;;4590211;19;20398;-38
2023/01/09 01:39:10;;;;;;;37.80;30.58;;;12.90;99.90;;;;;;4591503;19;20014;-34
2023/01/09 01:40:42;;;;;;;37.00;30.60;;;12.90;99.90;;;;;;4591276;19;20014;-34
2023/01/09 01:42:14;;;;;;;35.50;29.23;;;12.90;99.90;;;;;;4591990;19;20017;-33
2023/01/09 01:43:57;;;;;;;35.78;28.67;;;12.90;99.90;;;;;;4592450;19;20023;-29
2023/01/09 01:45:29;;;;;;;35.27;28.50;;;12.90;99.90;;;;;;4591015;19;20548;-35
2023/01/09 01:47:02;;;;;;;34.73;28.60;;;12.80;99.90;;;;;;4591267;19;20010;-27
2023/01/09 01:48:33;;;;;;;34.55;27.33;;;12.80;99.90;;;;;;4591276;19;20587;-31
2023/01/09 01:50:27;;;;;;;34.97;27.77;;;12.90;99.90;;;;;;4592063;19;20018;-30
2023/01/09 01:51:58;;;;;;;35.13;27.83;;;12.90;99.90;;;;;;4589734;19;20445;-33
2023/01/09 01:53:33;;;;;;;37.43;27.73;;;12.90;99.90;;;;;;4590222;19;20464;-34
2023/01/09 01:55:07;;;;;;;37.87;30.77;;;12.90;99.90;;;;;;4589908;19;20018;-33
2023/01/09 01:56:52;;;;;;;35.20;28.50;;;12.90;99.90;;;;;;4588674;19;20022;-31
2023/01/09 02:03:47;;;;;;;32.73;25.53;;;12.90;99.90;;;;;;4591664;19;19983;-29
2023/01/09 02:17:52;;;;;;;34.43;26.03;;;12.90;99.90;;;;;;4588784;19;20006;-34
2023/01/09 02:19:36;;;;;;;30.33;25.10;;;12.90;99.90;;;;;;4589515;19;20022;-35
2023/01/09 02:21:24;;;;;;;34.80;25.73;;;12.90;99.90;;;;;;4589722;19;20018;-34
2023/01/09 02:23:32;;;;;;;30.97;25.07;;;12.90;99.90;;;;;;4589510;19;20444;-33
2023/01/09 02:25:19;;;;;;;34.03;25.43;;;12.90;99.90;;;;;;4589374;19;20021;-31
2023/01/09 02:27:04;;;;;;;31.07;25.23;;;12.90;99.90;;;;;;4589656;19;20015;-31
2023/01/09 02:29:06;;;;;;;30.33;25.57;;;12.90;99.90;;;;;;4589368;19;20472;-33
2023/01/09 02:31:19;;;;;;;35.67;26.67;;;12.90;99.90;;;;;;4591323;19;20422;-36
2023/01/09 02:32:58;;;;;;;31.63;25.98;;;12.80;99.90;;;;;;4589303;19;20048;-33
2023/01/09 02:34:54;;;;;;;32.03;25.33;;;12.80;99.90;;;;;;4589014;19;20015;-31
2023/01/09 02:36:45;;;;;;;30.80;25.83;;;12.80;99.90;;;;;;4588366;19;20086;-35
2023/01/09 02:38:55;;;;;;;33.17;26.17;;;12.80;99.90;;;;;;4588716;19;20018;-32
2023/01/09 02:40:38;;;;;;;30.83;24.77;;;12.80;99.90;;;;;;4589074;19;20422;-34
2023/01/09 02:42:16;;;;;;;30.70;24.90;;;12.80;99.90;;;;;;4588977;19;20029;-31
2023/01/09 02:44:10;;;;;;;33.10;26.70;;;12.80;99.90;;;;;;4589234;19;20002;-28
2023/01/09 02:45:42;;;;;;;36.03;28.57;;;12.80;99.90;;;;;;4588216;19;20018;-28
2023/01/09 02:47:15;;;;;;;42.13;32.40;;;12.80;99.90;;;;;;4588817;19;20024;-33
2023/01/09 02:48:48;;;;;;;43.22;33.50;;;12.80;99.90;;;;;;4588533;19;20385;-36
2023/01/09 02:50:26;;;;;;;42.70;34.03;;;12.80;99.90;;;;;;4588503;19;20007;-32
2023/01/09 02:52:29;;;;;;;44.73;35.50;;;12.80;99.90;;;;;;4588931;19;20018;-31
2023/01/09 02:54:10;;;;;;;44.57;34.77;;;12.80;99.90;;;;;;4588750;19;20041;-29
2023/01/09 02:56:02;;;;;;;43.60;34.17;;;12.80;99.90;;;;;;4588519;19;20144;-29
2023/01/09 02:57:52;;;;;;;40.73;33.37;;;12.80;99.90;;;;;;4588203;19;20018;-29
2023/01/09 02:59:32;;;;;;;44.13;34.30;;;12.80;99.90;;;;;;4588527;19;20014;-29
2023/01/09 03:01:10;;;;;;;43.27;33.67;;;12.90;99.90;;;;;;4588277;19;20011;-28
2023/01/09 03:02:46;;;;;;;46.17;35.10;;;12.90;99.90;;;;;;4588236;19;20584;-29
2023/01/09 03:04:38;;;;;;;39.47;31.93;;;12.90;99.90;;;;;;4588359;19;20010;-31
2023/01/09 03:06:16;;;;;;;42.00;34.00;;;12.90;99.90;;;;;;4587867;19;20018;-33
2023/01/09 03:08:05;;;;;;;39.03;32.07;;;12.90;99.90;;;;;;4588542;19;20019;-29
2023/01/09 03:09:36;;;;;;;37.07;31.13;;;12.80;99.90;;;;;;4588362;19;20011;-28
2023/01/09 03:11:10;;;;;;;39.47;32.53;;;12.80;99.90;;;;;;4587961;19;20025;-31
2023/01/09 03:12:42;;;;;;;36.23;29.73;;;12.80;99.90;;;;;;4588427;19;20011;-33
2023/01/09 03:14:15;;;;;;;36.70;30.40;;;12.80;99.90;;;;;;4587976;19;20063;-30
2023/01/09 03:15:49;;;;;;;40.03;31.63;;;12.80;99.90;;;;;;4587853;19;20010;-32
2023/01/09 03:17:31;;;;;;;33.50;28.23;;;12.80;99.90;;;;;;4588295;19;20007;-37
2023/01/09 03:19:04;;;;;;;36.33;28.50;;;12.80;99.90;;;;;;4588147;19;20013;-34
2023/01/09 03:20:35;;;;;;;34.77;28.47;;;12.80;99.90;;;;;;4587842;19;20463;-28
2023/01/09 03:22:07;;;;;;;38.45;29.95;;;12.80;99.90;;;;;;4587893;19;20029;-29
2023/01/09 03:23:49;;;;;;;36.47;28.20;;;12.80;99.90;;;;;;4588229;19;20500;-36
2023/01/09 03:25:22;;;;;;;37.20;29.67;;;12.80;99.90;;;;;;4587981;19;20010;-35
2023/01/09 03:26:54;;;;;;;35.73;28.23;;;12.80;99.90;;;;;;4587920;19;20363;-29
2023/01/09 03:28:27;;;;;;;37.13;28.27;;;12.80;99.90;;;;;;4587682;19;20021;-35
2023/01/09 03:29:59;;;;;;;33.43;27.67;;;12.80;99.90;;;;;;4587642;19;20023;-28
2023/01/09 03:31:49;;;;;;;35.58;28.90;;;12.80;99.90;;;;;;4588412;19;20123;-31
2023/01/09 03:33:20;;;;;;;38.03;29.47;;;12.80;99.90;;;;;;4588223;19;20017;-30
2023/01/09 03:34:53;;;;;;;32.67;27.30;;;12.90;99.90;;;;;;4588762;19;20007;-34
2023/01/09 03:36:26;;;;;;;31.77;25.77;;;12.90;99.90;;;;;;4589444;19;20476;-34
2023/01/09 03:37:58;;;;;;;34.03;28.13;;;12.90;99.90;;;;;;4590130;19;20036;-34
2023/01/09 03:39:28;;;;;;;;;;;12.90;99.90;;;;;;4590998;19;20480;-31
2023/01/09 03:41:00;;;;;;;34.83;27.48;;;12.90;99.90;;;;;;4590261;19;20333;-29
2023/01/09 03:42:31;;;;;;;35.03;27.10;;;12.80;99.90;;;;;;4589964;19;20038;-28
2023/01/09 03:44:02;;;;;;;32.05;25.83;;;12.80;99.90;;;;;;4590522;19;20011;-29
2023/01/09 03:45:35;;;;;;;34.40;26.83;;;12.80;99.90;;;;;;4588889;19;20014;-31
2023/01/09 03:47:06;;;;;;;33.33;26.08;;;12.90;99.90;;;;;;4589241;19;20021;-29
2023/01/09 03:48:38;;;;;;;33.77;26.37;;;12.80;99.90;;;;;;4588578;19;20014;-29
2023/01/09 03:50:11;;;;;;;32.93;26.10;;;12.80;99.90;;;;;;4589734;19;20014;-29
2023/01/09 03:51:42;;;;;;;35.13;24.98;;;12.80;99.90;;;;;;4589796;19;20011;-30
2023/01/09 03:53:13;;;;;;;34.22;28.02;;;12.80;99.90;;;;;;4588558;19;20327;-32
2023/01/09 03:54:44;;;;;;;35.05;27.92;;;12.80;99.90;;;;;;4589674;19;20346;-29
2023/01/09 03:56:17;;;;;;;32.43;25.27;;;12.80;99.90;;;;;;4589771;19;20006;-30
2023/01/09 03:57:49;;;;;;;32.55;24.70;;;12.80;99.90;;;;;;4589628;19;20029;-29
2023/01/09 03:59:24;;;;;;;31.17;25.03;;;12.80;99.90;;;;;;4589490;19;20018;-30
2023/01/09 04:01:00;;;;;;;31.50;25.30;;;12.80;99.90;;;;;;4589944;19;20022;-29
2023/01/09 04:02:33;;;;;;;30.97;25.60;;;12.80;99.90;;;;;;4590029;19;20036;-30
2023/01/09 04:04:04;;;;;;;31.03;25.63;;;12.80;99.90;;;;;;4589398;19;20033;-29
2023/01/09 04:05:36;;;;;;;33.03;26.40;;;12.80;99.90;;;;;;4589776;19;20018;-29
2023/01/09 04:07:07;;;;;;;33.13;25.77;;;12.80;99.90;;;;;;4588881;19;20082;-29
2023/01/09 04:08:40;;;;;;;31.93;26.07;;;12.80;99.90;;;;;;4589468;19;20023;-28
2023/01/09 04:10:11;;;;;;;34.47;27.38;;;12.80;99.90;;;;;;4589395;19;20042;-33
2023/01/09 04:11:42;;;;;;;29.50;24.45;;;12.80;99.90;;;;;;4589495;19;20007;-31
2023/01/09 04:13:14;;;;;;;32.20;25.67;;;12.80;99.90;;;;;;4589754;19;20007;-30
2023/01/09 04:14:44;;;;;;;31.70;25.27;;;12.70;99.90;;;;;;4589439;19;20015;-29
2023/01/09 04:16:18;;;;;;;33.90;26.23;;;12.80;99.90;;;;;;4588782;19;20015;-29
2023/01/09 04:17:52;;;;;;;33.37;26.20;;;12.80;99.90;;;;;;4589576;19;20357;-32
2023/01/09 04:51:06;;;;;;;33.03;24.40;;;12.90;99.90;;;;;;4589724;19;20022;-27
2023/01/09 04:52:38;;;;;;;33.67;27.43;;;13.00;99.90;;;;;;4590406;19;20045;-31
2023/01/09 04:54:09;;;;;;;33.03;26.92;;;13.00;99.90;;;;;;4589420;19;20013;-32
2023/01/09 04:55:41;;;;;;;33.97;26.50;;;13.10;99.90;;;;;;4589995;19;20007;-27
2023/01/09 04:57:14;;;;;;;34.33;26.80;;;13.10;99.90;;;;;;4588940;19;20339;-27
2023/01/09 04:58:46;;;;;;;35.67;27.70;;;13.10;99.90;;;;;;4591949;19;20007;-29
2023/01/09 05:00:18;;;;;;;33.28;27.00;;;13.10;99.90;;;;;;4592921;19;20011;-31
2023/01/09 05:01:53;;;;;;;32.33;25.97;;;13.20;99.90;;;;;;4593113;19;20018;-28
2023/01/09 05:03:24;;;;;;;34.17;26.53;;;13.10;99.90;;;;;;4593515;19;20010;-29
2023/01/09 05:04:56;;;;;;;34.30;26.27;;;13.10;99.90;;;;;;4593904;19;20014;-31
2023/01/09 05:06:28;;;;;;;81.87;60.50;;;13.10;99.90;;;;;;4593512;19;20345;-29
2023/01/09 05:07:59;;;;;;;76.13;58.47;;;13.20;99.90;;;;;;4592999;19;20341;-29
2023/01/09 05:09:31;;;;;;;49.40;42.00;;;13.20;99.90;;;;;;4591427;19;20010;-31
2023/01/09 05:11:02;;;;;;;50.25;43.80;;;13.10;99.90;;;;;;4593197;19;20010;-31
2023/01/09 05:12:35;;;;;;;44.15;39.35;;;13.00;99.90;;;;;;4592678;19;20369;-30
2023/01/09 05:14:06;;;;;;;35.53;30.57;;;13.10;99.90;;;;;;4593362;19;20015;-33
2023/01/09 05:15:38;;;;;;;31.97;26.53;;;13.10;99.90;;;;;;4594983;19;20029;-30
2023/01/09 05:17:09;;;;;;;30.27;26.30;;;13.30;99.90;;;;;;4591908;19;20006;-37
2023/01/09 05:18:41;;;;;;;;;;;13.30;99.90;;;;;;4595295;19;20017;-29
2023/01/09 05:20:12;;;;;;;32.97;27.53;;;13.30;99.90;;;;;;4593810;19;19922;-30
2023/01/09 05:21:43;;;;;;;31.50;25.02;;;13.30;99.90;;;;;;4592873;19;20070;-38
2023/01/09 05:23:15;;;;;;;31.52;25.77;;;13.30;99.90;;;;;;4593872;19;20010;-29
2023/01/09 05:24:46;;;;;;;34.70;28.07;;;13.20;99.90;;;;;;4591916;19;20022;-35
2023/01/09 05:26:22;;;;;;;38.08;31.48;;;13.10;99.90;;;;;;4593462;19;20356;-28
2023/01/09 05:27:54;;;;;;;37.27;32.47;;;13.10;99.90;;;;;;4593092;19;20376;-31
2023/01/09 05:29:26;;;;;;;38.70;31.73;;;13.00;99.90;;;;;;4592637;19;20342;-29
2023/01/09 05:30:57;;;;;;;41.83;32.60;;;13.00;99.90;;;;;;4592023;19;20003;-35
2023/01/09 05:32:28;;;;;;;39.08;31.98;;;13.00;99.90;;;;;;4593281;19;20027;-28
2023/01/09 05:33:59;;;;;;;37.78;28.73;;;13.00;99.90;;;;;;4592232;19;20030;-31
2023/01/09 05:35:31;;;;;;;39.25;29.10;;;13.00;99.90;;;;;;4592058;19;20014;-29
2023/01/09 05:37:03;;;;;;;36.50;30.07;;;13.10;99.90;;;;;;4591144;19;20018;-28
2023/01/09 05:38:35;;;;;;;34.83;27.17;;;13.10;99.90;;;;;;4593615;19;20027;-27
2023/01/09 05:40:07;;;;;;;36.45;27.58;;;13.10;99.90;;;;;;4593078;19;20026;-28
2023/01/09 05:41:39;;;;;;;30.90;25.90;;;13.10;99.90;;;;;;4593628;19;20007;-26
2023/01/09 05:43:12;;;;;;;33.73;27.23;;;13.20;99.90;;;;;;4593126;19;20006;-26
2023/01/09 05:44:43;;;;;;;30.95;24.60;;;13.20;99.90;;;;;;4593289;19;20006;-29
2023/01/09 05:46:14;;;;;;;34.85;26.67;;;13.20;99.90;;;;;;4593121;19;20372;-29
2023/01/09 05:47:46;;;;;;;35.43;28.53;;;13.30;99.90;;;;;;4592829;19;20338;-34
2023/01/09 05:49:18;;;;;;;43.50;31.85;;;13.30;99.90;;;;;;4593194;19;20006;-29
2023/01/09 05:50:49;;;;;;;39.83;31.25;;;13.30;99.90;;;;;;4592696;19;20487;-37
2023/01/09 05:53:54;;;;;;;37.43;29.23;;;13.30;99.90;;;;;;4590013;19;19926;-29
2023/01/09 05:55:26;;;;;;;38.47;28.67;;;13.20;99.90;;;;;;4592799;19;20024;-29
2023/01/09 05:56:58;;;;;;;;;;;13.30;99.90;;;;;;4592484;19;20010;-35
2023/01/09 05:58:29;;;;;;;37.33;29.30;;;13.20;99.90;;;;;;4592972;19;20010;-29
2023/01/09 06:00:00;;;;;;;35.55;27.77;;;13.20;99.90;;;;;;4592841;19;20011;-29
2023/01/09 06:01:32;;;;;;;;;;;13.20;99.90;;;;;;4594104;19;20026;-29
2023/01/09 06:03:03;;;;;;;37.07;28.27;;;13.20;99.90;;;;;;4592550;19;20316;-35
2023/01/09 06:04:34;;;;;;;38.80;29.58;;;13.20;99.90;;;;;;4592581;19;20467;-34
2023/01/09 06:06:06;;;;;;;39.47;29.55;;;13.10;99.90;;;;;;4592911;19;20007;-30
2023/01/09 06:07:39;;;;;;;34.25;26.55;;;13.10;99.90;;;;;;4592727;19;20038;-35
2023/01/09 06:09:10;;;;;;;37.73;27.23;;;13.10;99.90;;;;;;4591784;19;20010;-33
2023/01/09 06:10:42;;;;;;;38.08;29.38;;;13.10;99.90;;;;;;4592766;19;20006;-30
2023/01/09 06:12:12;;;;;;;39.00;29.80;;;13.10;99.90;;;;;;4593020;19;20070;-28
2023/01/09 06:13:45;;;;;;;37.80;29.63;;;13.10;99.90;;;;;;4592414;19;20033;-37
2023/01/09 06:15:17;;;;;;;43.00;31.50;;;13.10;99.90;;;;;;4592149;19;20019;-33
2023/01/09 06:16:48;;;;;;;34.00;27.65;;;13.10;99.90;;;;;;4591909;19;20021;-29
2023/01/09 06:18:19;;;;;;;33.85;27.65;;;13.10;99.90;;;;;;4591675;19;20010;-28
2023/01/09 06:19:50;;;;;;;39.47;29.95;;;13.10;99.90;;;;;;4592033;19;20014;-29
2023/01/09 06:21:21;;;;;;;36.58;29.83;;;13.00;99.90;;;;;;4592535;19;20017;-29
2023/01/09 06:22:53;;;;;;;36.75;29.45;;;13.00;99.90;;;;;;4593264;19;20011;-31
2023/01/09 06:24:24;;;;;;;34.55;28.45;;;13.00;99.90;;;;;;4592942;19;20022;-30
2023/01/09 06:25:55;;;;;;;37.50;29.42;;;13.00;99.90;;;;;;4592320;19;20014;-28
2023/01/09 06:27:26;;;;;;;36.05;28.27;;;13.00;99.90;;;;;;4592423;19;20475;-29
2023/01/09 06:28:59;;;;;;;34.92;27.77;;;13.00;99.90;;;;;;4592555;19;20018;-28
2023/01/09 06:30:32;;;;;;;34.87;27.57;;;13.00;99.90;;;;;;4591010;19;20014;-31
2023/01/09 06:32:04;;;;;;;31.63;26.07;;;13.00;99.90;;;;;;4591642;19;20014;-29
2023/01/09 06:33:35;;;;;;;34.67;27.03;;;13.00;99.90;;;;;;4592501;19;20341;-29
2023/01/09 06:35:07;;;;;;;37.97;30.40;;;13.00;99.90;;;;;;4591186;19;20452;-30
2023/01/09 06:36:39;;;;;;;36.10;29.73;;;13.00;99.90;;;;;;4590781;19;20471;-31
2023/01/09 06:38:11;;;;;;;35.80;29.55;;;13.00;99.90;;;;;;4592269;19;20028;-30
2023/01/09 06:39:42;;;;;;;37.45;32.25;;;12.90;99.90;;;;;;4591540;19;20082;-33
2023/01/09 06:41:13;;;;;;;37.22;28.95;;;12.90;99.90;;;;;;4591396;19;20357;-32
2023/01/09 06:42:45;;;;;;;34.27;26.97;;;12.90;99.90;;;;;;4588912;19;20018;-33
2023/01/09 06:44:16;;;;;;;33.33;27.55;;;12.90;99.90;;;;;;4589000;19;20007;-33
2023/01/09 06:45:47;;;;;;;34.95;27.60;;;12.90;99.90;;;;;;4589416;19;20018;-32
2023/01/09 06:47:19;;;;;;;35.55;27.83;;;12.90;99.90;;;;;;4592626;19;20472;-30
2023/01/09 06:48:50;;;;;;;40.00;33.00;;;12.90;99.90;;;;;;4591654;19;20028;-30
2023/01/09 06:50:21;;;;;;;38.95;29.60;;;12.90;99.90;;;;;;4591774;19;20011;-30
2023/01/09 06:51:52;;;;;;;39.90;28.00;;;12.80;99.90;;;;;;4590215;19;20411;-28
2023/01/09 07:00:26;;;;;;;37.50;29.07;;;12.90;99.90;;;;;;4590419;19;20022;-28
2023/01/09 07:01:58;;;;;;;36.50;27.70;;;12.90;99.90;;;;;;4592321;19;20471;-29
2023/01/09 07:03:30;;;;;;;39.08;29.23;;;12.90;99.90;;;;;;4591271;19;20026;-32
2023/01/09 07:05:02;;;;;;;38.83;30.27;;;12.90;99.90;;;;;;4591655;19;20492;-33
2023/01/09 07:06:33;;;;;;;34.60;27.20;;;12.90;99.90;;;;;;4591002;19;20018;-36
2023/01/09 07:08:04;;;;;;;35.88;28.75;;;13.00;99.90;;;;;;4592396;19;20040;-32
2023/01/09 07:09:36;;;;;;;35.50;28.27;;;13.10;99.90;;;;;;4590245;19;20019;-31
2023/01/09 07:11:07;;;;;;;39.85;30.33;;;13.10;99.90;;;;;;4590397;19;20022;-36
2023/01/09 07:12:38;;;;;;;38.30;29.17;;;13.10;99.90;;;;;;4591105;19;20018;-28
2023/01/09 07:14:09;;;;;;;36.88;29.27;;;13.10;99.90;;;;;;4590147;19;20013;-36
2023/01/09 07:15:40;;;;;;;;;;;13.00;99.90;;;;;;4591311;19;20085;-30
2023/01/09 07:17:12;;;;;;;37.77;29.87;;;13.00;99.90;;;;;;4590106;19;19919;-32
2023/01/09 07:18:43;;;;;;;37.63;29.48;;;13.00;99.90;;;;;;4591541;19;20014;-31
2023/01/09 07:20:15;;;;;;;35.97;27.83;;;13.00;99.90;;;;;;4591018;19;20014;-35
2023/01/09 07:21:46;;;;;;;37.97;28.70;;;12.90;99.90;;;;;;4589958;19;20018;-33
2023/01/09 07:23:17;;;;;;;36.83;28.17;;;12.90;99.90;;;;;;4591155;19;20014;-32
2023/01/09 07:24:49;;;;;;;39.20;28.53;;;12.90;99.90;;;;;;4591100;19;20033;-32
2023/01/09 07:26:20;;;;;;;34.78;26.08;;;12.90;99.90;;;;;;4590797;19;20018;-33
2023/01/09 07:27:51;;;;;;;37.88;27.48;;;12.90;99.90;;;;;;4590015;19;20017;-34
2023/01/09 07:29:22;;;;;;;34.38;26.85;;;12.90;99.90;;;;;;4590032;19;20019;-29
2023/01/09 07:30:54;;;;;;;34.47;26.75;;;12.90;99.90;;;;;;4590605;19;20003;-28
2023/01/09 07:32:25;;;;;;;36.28;28.00;;;12.90;99.90;;;;;;4590676;19;20018;-34
2023/01/09 07:33:56;;;;;;;33.92;26.38;;;12.90;99.90;;;;;;4591259;19;20010;-34
2023/01/09 07:35:27;;;;;;;34.33;27.33;;;12.90;99.90;;;;;;4591071;19;20082;-30
2023/01/09 07:36:58;;;;;;;34.05;26.33;;;12.90;99.90;;;;;;4589768;19;20388;-32
2023/01/09 07:38:30;;;;;;;37.78;28.10;;;12.90;99.90;;;;;;4590910;19;20018;-31
2023/01/09 07:40:02;;;;;;;36.10;27.70;;;12.90;99.90;;;;;;4590737;19;20077;-32
2023/01/09 07:41:33;;;;;;;37.90;29.23;;;12.90;99.90;;;;;;4591122;19;20017;-31
2023/01/09 07:43:05;;;;;;;35.47;28.93;;;12.90;99.90;;;;;;4590375;19;20338;-34
2023/01/09 07:44:37;;;;;;;39.33;27.70;;;12.90;99.90;;;;;;4590832;19;20010;-31
2023/01/09 07:46:08;;;;;;;36.40;27.40;;;12.90;99.90;;;;;;4591132;19;20337;-35
2023/01/09 07:47:40;;;;;;;33.83;27.48;;;12.90;99.90;;;;;;4591367;19;20369;-33
2023/01/09 07:49:11;;;;;;;38.77;28.57;;;12.90;99.90;;;;;;4589078;19;20381;-33
2023/01/09 07:50:43;;;;;;;37.17;28.25;;;12.90;99.90;;;;;;4589587;19;20018;-33
2023/01/09 07:52:14;;;;;;;41.55;30.67;;;12.90;99.90;;;;;;4589922;19;20415;-32
2023/01/09 07:53:45;;;;;;;37.45;29.48;;;12.80;99.90;;;;;;4590442;19;20041;-34
2023/01/09 07:55:16;;;;;;;36.83;28.92;;;12.90;99.90;;;;;;4590538;19;20011;-31
2023/01/09 07:56:48;;;;;;;37.83;28.23;;;12.90;99.90;;;;;;4589965;19;20337;-30
2023/01/09 07:58:19;;;;;;;38.80;29.08;;;12.90;99.90;;;;;;4591187;19;20026;-33
2023/01/09 07:59:50;;;;;;;40.72;31.33;;;12.90;99.90;;;;;;4590027;19;20033;-32
2023/01/09 08:01:22;;;;;;;41.27;32.30;;;12.20;99.90;;;;;;4589877;19;20070;-37
2023/01/09 08:02:53;;;;;;;41.60;32.08;;;10.80;99.90;;;;;;4589510;19;20441;-29
2023/01/09 08:04:25;;;;;;;48.90;35.63;;;10.10;99.90;;;;;;4590792;19;20003;-30
2023/01/09 08:05:56;;;;;;;46.78;36.67;;;9.70;99.90;;;;;;4589854;19;21100;-29
2023/01/09 08:07:28;;;;;;;51.47;37.90;;;9.50;99.90;;;;;;4590633;19;20011;-28
2023/01/09 08:09:00;;;;;;;53.83;39.28;;;9.50;99.90;;;;;;4590282;19;20010;-31
2023/01/09 08:10:31;;;;;;;55.33;38.05;;;9.40;99.90;;;;;;4589802;19;20112;-28
2023/01/09 08:12:03;;;;;;;56.35;39.53;;;9.30;99.90;;;;;;4590009;19;20010;-29
2023/01/09 08:13:34;;;;;;;56.93;39.07;;;9.30;99.90;;;;;;4590238;19;20010;-29
2023/01/09 08:15:06;;;;;;;61.55;41.38;;;9.30;99.90;;;;;;4589845;19;20428;-29
2023/01/09 08:16:37;;;;;;;57.90;39.10;;;9.30;99.90;;;;;;4588695;19;20015;-30
2023/01/09 08:18:08;;;;;;;58.78;38.78;;;9.30;99.90;;;;;;4589345;19;20437;-31
2023/01/09 08:19:40;;;;;;;63.65;42.03;;;9.80;99.90;;;;;;4590092;19;20053;-29
2023/01/09 08:21:13;;;;;;;57.20;38.10;;;10.40;99.90;;;;;;4590181;19;20011;-29
2023/01/09 08:22:48;;;;;;;54.97;37.27;;;10.90;99.90;;;;;;4590820;19;20793;-31
2023/01/09 08:24:19;;;;;;;53.30;37.50;;;11.20;99.90;;;;;;4588874;19;20469;-31
2023/01/09 08:25:51;;;;;;;50.80;36.22;;;11.40;99.90;;;;;;4587421;19;20804;-30
2023/01/09 08:27:23;;;;;;;56.50;39.27;;;11.60;99.90;;;;;;4585474;19;20014;-35
2023/01/09 08:29:29;;;;;;;55.33;39.65;;;11.70;99.90;;;;;;4588091;19;20445;-31
2023/01/09 08:31:08;;;;;;;57.30;42.40;;;11.80;99.90;;;;;;4588727;19;20018;-30
2023/01/09 08:32:40;;;;;;;55.47;40.90;;;11.90;99.90;;;;;;4590566;19;20523;-33
2023/01/09 08:34:11;;;;;;;50.75;38.65;;;12.00;99.90;;;;;;4593247;19;20034;-34
2023/01/09 08:35:43;;;;;;;51.40;37.72;;;12.00;99.90;;;;;;4593560;19;20330;-36
2023/01/09 08:37:14;;;;;;;47.72;34.53;;;12.10;99.90;;;;;;4591131;19;20007;-31
2023/01/09 08:38:46;;;;;;;;;;;12.10;99.90;;;;;;4594644;19;20017;-30
2023/01/09 08:40:17;;;;;;;44.93;33.43;;;12.20;99.90;;;;;;4594325;19;19946;-29
2023/01/09 08:47:21;;;;;;;45.87;34.13;;;12.30;99.90;;;;;;4592521;19;20485;-34
2023/01/09 08:48:52;;;;;;;;;;;12.30;99.90;;;;;;4593490;19;20437;-31
2023/01/09 08:50:24;;;;;;;44.17;33.22;;;12.30;99.90;;;;;;4594037;19;19923;-30
2023/01/09 08:51:55;;;;;;;45.40;33.58;;;12.40;99.90;;;;;;4591750;19;20018;-31
2023/01/09 08:53:27;;;;;;;45.58;31.88;;;12.40;99.90;;;;;;4592584;19;20522;-37
2023/01/09 08:54:58;;;;;;;46.97;32.77;;;12.40;99.90;;;;;;4591415;19;20015;-31
2023/01/09 08:56:30;;;;;;;43.25;33.30;;;12.40;99.90;;;;;;4592094;19;20448;-30
2023/01/09 08:58:01;;;;;;;44.55;33.13;;;12.40;99.90;;;;;;4593693;19;20015;-33
2023/01/09 08:59:33;;;;;;;42.50;31.03;;;12.40;99.90;;;;;;4593448;19;20018;-33
2023/01/09 09:01:05;;;;;;;44.38;32.28;;;12.40;99.90;;;;;;4593082;19;20514;-31
2023/01/09 09:02:37;;;;;;;42.20;31.70;;;12.40;99.90;;;;;;4593456;19;20070;-31
2023/01/09 09:04:08;;;;;;;;;;;12.50;99.90;;;;;;4594604;19;20078;-30
2023/01/09 09:05:40;;;;;;;45.27;32.43;;;12.50;99.90;;;;;;4592962;19;19934;-33
2023/01/09 09:07:11;;;;;;;46.58;34.47;;;12.50;99.90;;;;;;4591336;19;20481;-31
2023/01/09 09:08:43;;;;;;;47.70;34.75;;;12.50;99.90;;;;;;4592982;19;20006;-31
2023/01/09 09:10:15;;;;;;;43.90;33.50;;;12.50;99.90;;;;;;4592133;19;20033;-31
2023/01/09 09:11:46;;;;;;;42.87;32.67;;;12.50;99.90;;;;;;4593089;19;20073;-35
2023/01/09 09:13:18;;;;;;;44.95;32.25;;;12.50;99.90;;;;;;4593566;19;20518;-31
2023/01/09 09:16:39;;;;;;;39.97;30.47;;;12.50;99.90;;;;;;4589378;19;20070;-31
2023/01/09 09:18:10;;;;;;;44.28;32.45;;;12.50;99.90;;;;;;4593664;19;20014;-38
2023/01/09 09:19:41;;;;;;;42.30;30.10;;;12.60;99.90;;;;;;4593843;19;20013;-30
2023/01/09 09:21:13;;;;;;;43.78;32.53;;;12.60;99.90;;;;;;4593100;19;20011;-29
2023/01/09 09:22:47;;;;;;;41.70;31.38;;;12.60;99.90;;;;;;4593826;19;20387;-32
2023/01/09 09:24:18;;;;;;;43.03;31.70;;;12.60;99.90;;;;;;4592625;19;20010;-37
2023/01/09 09:25:50;;;;;;;44.60;32.35;;;12.60;99.90;;;;;;4592244;19;20002;-30
2023/01/09 09:27:21;;;;;;;;;;;12.60;99.90;;;;;;4592970;19;20022;-29
2023/01/09 09:28:52;;;;;;;41.63;30.07;;;12.60;99.90;;;;;;4592325;19;19919;-36
2023/01/09 09:30:24;;;;;;;39.88;30.20;;;12.60;99.90;;;;;;4593794;19;20369;-31
2023/01/09 09:31:55;;;;;;;40.13;30.38;;;12.60;99.90;;;;;;4592108;19;20027;-29
2023/01/09 09:33:27;;;;;;;40.67;29.77;;;12.60;99.90;;;;;;4591161;19;20464;-33
2023/01/09 09:34:58;;;;;;;38.53;29.33;;;12.60;99.90;;;;;;4591827;19;20014;-30
2023/01/09 09:36:30;;;;;;;40.13;29.58;;;12.60;99.90;;;;;;4591704;19;20028;-34
2023/01/09 09:38:02;;;;;;;40.03;29.95;;;12.60;99.90;;;;;;4595777;19;20077;-30
2023/01/09 09:39:33;;;;;;;43.33;31.93;;;12.60;99.90;;;;;;4591369;19;20555;-28
2023/01/09 09:45:50;;;;;;;46.07;35.63;;;12.60;99.90;;;;;;4591484;19;20101;-31
2023/01/09 09:47:42;;;;;;;41.87;33.30;;;12.60;99.90;;;;;;4591919;19;20034;-30
2023/01/09 09:49:23;;;;;;;40.45;31.40;;;12.60;99.90;;;;;;4590544;19;20002;-31
2023/01/09 09:51:28;;;;;;;38.45;30.13;;;12.60;99.90;;;;;;4590674;19;20010;-31
2023/01/09 09:53:11;;;;;;;39.03;29.30;;;12.60;99.90;;;;;;4590414;19;20377;-33
2023/01/09 09:54:47;;;;;;;40.77;30.90;;;12.60;99.90;;;;;;4591034;19;20022;-32
2023/01/09 09:56:20;;;;;;;42.97;30.83;;;12.60;99.90;;;;;;4590502;19;20023;-31
2023/01/09 09:57:52;;;;;;;42.83;30.80;;;12.60;99.90;;;;;;4591717;19;20010;-30
2023/01/09 09:59:28;;;;;;;42.15;30.80;;;12.60;99.90;;;;;;4590145;19;20006;-33
2023/01/09 10:01:00;;;;;;;44.10;32.17;;;12.60;99.90;;;;;;4590442;19;20010;-31
2023/01/09 10:02:43;;;;;;;;;;;12.60;99.90;;;;;;4591414;19;20006;-28
2023/01/09 10:04:16;;;;;;;45.20;32.27;;;12.60;99.90;;;;;;4589955;19;19922;-35
2023/01/09 10:05:47;;;;;;;49.80;34.03;;;12.60;99.90;;;;;;4590405;19;20025;-30
2023/01/09 10:07:22;;;;;;;47.90;33.67;;;12.60;99.90;;;;;;4589322;19;20015;-34
2023/01/09 10:09:23;;;;;;;46.93;34.07;;;12.60;99.90;;;;;;4590101;19;20035;-31
2023/01/09 10:10:55;;;;;;;43.27;32.87;;;12.60;99.90;;;;;;4590168;19;20364;-31
2023/01/09 10:12:34;;;;;;;41.85;33.38;;;12.60;99.90;;;;;;4590008;19;20022;-30